sensor_id;sensor_type;location;lat;lon;timestamp;pressure;altitude;pressure_sealevel;temperature;humidity
75646;BME280;64237;52.438;13.240;2023-07-13T00:00:28;100820.31;;;17.12;81.43
75646;BME280;64237;52.438;13.240;2023-07-13T00:02:54;100828.44;;;17.14;81.33
75646;BME280;64237;52.438;13.240;2023-07-13T00:05:23;100828.47;;;17.09;81.38
75646;BME280;64237;52.438;13.240;2023-07-13T00:07:50;100824.28;;;17.06;81.15
75646;BME280;64237;52.438;13.240;2023-07-13T00:10:16;100824.22;;;17.11;81.38
75646;BME280;64237;52.438;13.240;2023-07-13T00:12:42;100821.44;;;17.17;81.36
75646;BME280;64237;52.438;13.240;2023-07-13T00:15:14;100815.25;;;17.30;80.30
75646;BME280;64237;52.438;13.240;2023-07-13T00:17:41;100824.72;;;17.34;79.71
75646;BME280;64237;52.438;13.240;2023-07-13T00:20:16;100829.53;;;17.13;81.03
75646;BME280;64237;52.438;13.240;2023-07-13T00:22:42;100837.38;;;17.11;80.93
75646;BME280;64237;52.438;13.240;2023-07-13T00:25:11;100844.97;;;17.05;80.75
75646;BME280;64237;52.438;13.240;2023-07-13T00:27:37;100841.06;;;16.96;81.57
75646;BME280;64237;52.438;13.240;2023-07-13T00:32:35;100837.09;;;17.12;80.38
75646;BME280;64237;52.438;13.240;2023-07-13T00:35:01;100835.41;;;17.17;80.26
75646;BME280;64237;52.438;13.240;2023-07-13T00:37:28;100833.50;;;17.02;81.02
75646;BME280;64237;52.438;13.240;2023-07-13T00:39:54;100829.31;;;16.99;81.51
75646;BME280;64237;52.438;13.240;2023-07-13T00:42:19;100818.19;;;16.84;81.75
75646;BME280;64237;52.438;13.240;2023-07-13T00:47:44;100835.53;;;16.71;82.16
75646;BME280;64237;52.438;13.240;2023-07-13T00:50:14;100832.72;;;16.61;82.37
75646;BME280;64237;52.438;13.240;2023-07-13T00:52:45;100837.47;;;16.70;82.60
75646;BME280;64237;52.438;13.240;2023-07-13T00:55:12;100832.16;;;16.59;82.82
75646;BME280;64237;52.438;13.240;2023-07-13T00:57:38;100832.16;;;16.49;83.57
75646;BME280;64237;52.438;13.240;2023-07-13T01:00:05;100841.69;;;16.42;83.95
75646;BME280;64237;52.438;13.240;2023-07-13T01:02:35;100841.69;;;16.32;84.08
75646;BME280;64237;52.438;13.240;2023-07-13T01:05:16;100835.25;;;16.32;84.52
75646;BME280;64237;52.438;13.240;2023-07-13T01:07:43;100841.69;;;16.42;83.48
75646;BME280;64237;52.438;13.240;2023-07-13T01:10:13;100841.69;;;16.42;83.12
75646;BME280;64237;52.438;13.240;2023-07-13T01:12:42;100836.66;;;16.39;83.73
75646;BME280;64237;52.438;13.240;2023-07-13T01:15:40;100846.69;;;16.25;84.62
75646;BME280;64237;52.438;13.240;2023-07-13T01:18:09;100846.13;;;16.13;85.09
75646;BME280;64237;52.438;13.240;2023-07-13T01:20:35;100850.03;;;16.07;86.07
75646;BME280;64237;52.438;13.240;2023-07-13T01:23:19;100847.78;;;16.04;85.41
75646;BME280;64237;52.438;13.240;2023-07-13T01:25:45;100851.72;;;16.08;85.47
75646;BME280;64237;52.438;13.240;2023-07-13T01:28:10;100843.34;;;16.13;85.25
75646;BME280;64237;52.438;13.240;2023-07-13T01:30:40;100848.94;;;16.13;85.38
75646;BME280;64237;52.438;13.240;2023-07-13T01:33:17;100842.25;;;16.19;85.43
75646;BME280;64237;52.438;13.240;2023-07-13T01:35:44;100839.44;;;15.99;86.37
75646;BME280;64237;52.438;13.240;2023-07-13T01:38:17;100838.31;;;15.95;86.51
75646;BME280;64237;52.438;13.240;2023-07-13T01:40:43;100831.03;;;15.89;87.61
75646;BME280;64237;52.438;13.240;2023-07-13T01:43:14;100841.66;;;15.97;87.01
75646;BME280;64237;52.438;13.240;2023-07-13T01:45:40;100835.78;;;15.88;87.17
75646;BME280;64237;52.438;13.240;2023-07-13T01:48:05;100838.84;;;15.87;87.35
75646;BME280;64237;52.438;13.240;2023-07-13T01:50:32;100838.53;;;15.83;87.91
75646;BME280;64237;52.438;13.240;2023-07-13T01:52:58;100837.16;;;15.75;88.07
75646;BME280;64237;52.438;13.240;2023-07-13T01:55:23;100838.84;;;15.76;87.71
75646;BME280;64237;52.438;13.240;2023-07-13T01:57:49;100836.59;;;15.73;88.06
75646;BME280;64237;52.438;13.240;2023-07-13T02:00:14;100843.00;;;15.69;88.24
75646;BME280;64237;52.438;13.240;2023-07-13T02:02:40;100844.91;;;15.63;88.68
75646;BME280;64237;52.438;13.240;2023-07-13T02:05:12;100838.78;;;15.56;89.04
75646;BME280;64237;52.438;13.240;2023-07-13T02:07:41;100846.59;;;15.64;89.15
75646;BME280;64237;52.438;13.240;2023-07-13T02:10:06;100836.00;;;15.56;89.37
75646;BME280;64237;52.438;13.240;2023-07-13T02:12:32;100833.72;;;15.53;89.93
75646;BME280;64237;52.438;13.240;2023-07-13T02:14:58;100840.72;;;15.61;89.04
75646;BME280;64237;52.438;13.240;2023-07-13T02:17:26;100829.25;;;15.52;89.55
75646;BME280;64237;52.438;13.240;2023-07-13T02:19:52;100841.03;;;15.64;89.38
75646;BME280;64237;52.438;13.240;2023-07-13T02:22:21;100835.44;;;15.64;89.44
75646;BME280;64237;52.438;13.240;2023-07-13T02:24:47;100813.09;;;15.59;89.64
75646;BME280;64237;52.438;13.240;2023-07-13T02:27:16;100807.28;;;15.66;89.04
75646;BME280;64237;52.438;13.240;2023-07-13T02:29:44;100811.16;;;15.60;90.00
75646;BME280;64237;52.438;13.240;2023-07-13T02:32:10;100820.28;;;15.40;91.14
75646;BME280;64237;52.438;13.240;2023-07-13T02:34:35;100833.38;;;15.39;91.49
75646;BME280;64237;52.438;13.240;2023-07-13T02:37:00;100820.53;;;15.28;91.33
75646;BME280;64237;52.438;13.240;2023-07-13T02:39:26;100815.50;;;15.25;92.18
75646;BME280;64237;52.438;13.240;2023-07-13T02:41:51;100818.25;;;15.20;92.28
75646;BME280;64237;52.438;13.240;2023-07-13T02:44:16;100828.84;;;15.23;92.43
75646;BME280;64237;52.438;13.240;2023-07-13T02:46:42;100826.94;;;15.29;92.18
75646;BME280;64237;52.438;13.240;2023-07-13T02:49:10;100829.75;;;15.34;91.91
75646;BME280;64237;52.438;13.240;2023-07-13T02:51:38;100828.31;;;15.26;92.61
75646;BME280;64237;52.438;13.240;2023-07-13T02:54:04;100838.56;;;15.16;93.36
75646;BME280;64237;52.438;13.240;2023-07-13T02:56:31;100847.50;;;15.18;93.32
75646;BME280;64237;52.438;13.240;2023-07-13T02:59:00;100847.50;;;15.18;93.02
75646;BME280;64237;52.438;13.240;2023-07-13T03:01:25;100846.13;;;15.15;93.39
75646;BME280;64237;52.438;13.240;2023-07-13T03:03:51;100856.41;;;15.09;93.58
75646;BME280;64237;52.438;13.240;2023-07-13T03:06:17;100861.13;;;15.09;93.27
75646;BME280;64237;52.438;13.240;2023-07-13T03:08:49;100856.94;;;15.06;93.85
75646;BME280;64237;52.438;13.240;2023-07-13T03:11:17;100863.38;;;15.17;93.24
75646;BME280;64237;52.438;13.240;2023-07-13T03:13:42;100850.00;;;15.19;92.92
75646;BME280;64237;52.438;13.240;2023-07-13T03:16:09;100864.78;;;15.15;92.71
75646;BME280;64237;52.438;13.240;2023-07-13T03:18:36;100864.84;;;15.30;92.38
75646;BME280;64237;52.438;13.240;2023-07-13T03:21:01;100867.63;;;15.30;92.66
75646;BME280;64237;52.438;13.240;2023-07-13T03:23:27;100857.38;;;15.46;92.61
75646;BME280;64237;52.438;13.240;2023-07-13T03:26:04;100858.50;;;15.44;92.38
75646;BME280;64237;52.438;13.240;2023-07-13T03:28:30;100863.22;;;15.44;92.21
75646;BME280;64237;52.438;13.240;2023-07-13T03:31:12;100867.66;;;15.40;92.97
75646;BME280;64237;52.438;13.240;2023-07-13T03:33:38;100869.34;;;15.36;92.75
75646;BME280;64237;52.438;13.240;2023-07-13T03:36:05;100876.03;;;15.35;93.11
75646;BME280;64237;52.438;13.240;2023-07-13T03:38:32;100872.13;;;15.41;92.79
75646;BME280;64237;52.438;13.240;2023-07-13T03:40:57;100877.19;;;15.49;92.80
75646;BME280;64237;52.438;13.240;2023-07-13T03:43:23;100880.34;;;15.58;92.30
75646;BME280;64237;52.438;13.240;2023-07-13T03:45:48;100882.25;;;15.52;92.68
75646;BME280;64237;52.438;13.240;2023-07-13T03:48:14;100882.78;;;15.49;93.21
75646;BME280;64237;52.438;13.240;2023-07-13T03:50:39;100888.97;;;15.56;93.04
75646;BME280;64237;52.438;13.240;2023-07-13T03:53:15;100887.59;;;15.64;92.55
75646;BME280;64237;52.438;13.240;2023-07-13T03:55:40;100896.28;;;15.72;93.08
75646;BME280;64237;52.438;13.240;2023-07-13T04:00:54;100889.34;;;15.80;92.83
75646;BME280;64237;52.438;13.240;2023-07-13T04:03:20;100891.88;;;15.92;92.54
75646;BME280;64237;52.438;13.240;2023-07-13T04:05:45;100889.66;;;15.94;92.66
75646;BME280;64237;52.438;13.240;2023-07-13T04:08:11;100894.38;;;15.93;92.61
75646;BME280;64237;52.438;13.240;2023-07-13T04:10:36;100898.28;;;15.92;93.25
75646;BME280;64237;52.438;13.240;2023-07-13T04:13:02;100900.81;;;15.94;93.94
75646;BME280;64237;52.438;13.240;2023-07-13T04:15:31;100898.59;;;15.96;93.81
75646;BME280;64237;52.438;13.240;2023-07-13T04:17:57;100896.38;;;15.98;94.04
75646;BME280;64237;52.438;13.240;2023-07-13T04:20:24;100893.00;;;16.06;93.86
75646;BME280;64237;52.438;13.240;2023-07-13T04:22:50;100895.28;;;16.14;93.48
75646;BME280;64237;52.438;13.240;2023-07-13T04:25:15;100898.38;;;16.23;93.59
75646;BME280;64237;52.438;13.240;2023-07-13T04:27:41;100896.66;;;16.27;92.84
75646;BME280;64237;52.438;13.240;2023-07-13T04:30:07;100903.41;;;16.36;93.10
75646;BME280;64237;52.438;13.240;2023-07-13T04:32:35;100910.94;;;16.40;93.23
75646;BME280;64237;52.438;13.240;2023-07-13T04:35:00;100907.03;;;16.52;93.35
75646;BME280;64237;52.438;13.240;2023-07-13T04:37:26;100902.84;;;16.90;90.85
75646;BME280;64237;52.438;13.240;2023-07-13T04:39:52;100895.47;;;18.04;84.04
75646;BME280;64237;52.438;13.240;2023-07-13T04:42:17;100906.06;;;18.12;83.15
75646;BME280;64237;52.438;13.240;2023-07-13T04:44:48;100905.81;;;18.42;80.22
75646;BME280;64237;52.438;13.240;2023-07-13T04:47:14;100905.47;;;18.88;78.53
75646;BME280;64237;52.438;13.240;2023-07-13T04:49:42;100899.56;;;18.90;78.59
75646;BME280;64237;52.438;13.240;2023-07-13T04:52:14;100905.78;;;19.15;77.46
75646;BME280;64237;52.438;13.240;2023-07-13T04:54:42;100905.63;;;19.02;77.51
75646;BME280;64237;52.438;13.240;2023-07-13T04:57:07;100909.69;;;19.14;77.01
75646;BME280;64237;52.438;13.240;2023-07-13T04:59:33;100913.16;;;19.06;77.35
75646;BME280;64237;52.438;13.240;2023-07-13T05:01:58;100909.81;;;18.36;80.92
75646;BME280;64237;52.438;13.240;2023-07-13T05:04:27;100913.06;;;18.14;80.92
75646;BME280;64237;52.438;13.240;2023-07-13T05:06:52;100916.72;;;18.05;81.43
75646;BME280;64237;52.438;13.240;2023-07-13T05:09:17;100925.72;;;18.02;82.45
75646;BME280;64237;52.438;13.240;2023-07-13T05:11:43;100926.28;;;17.99;81.78
75646;BME280;64237;52.438;13.240;2023-07-13T05:14:08;100920.94;;;18.02;82.93
75646;BME280;64237;52.438;13.240;2023-07-13T05:16:35;100913.09;;;18.04;82.17
75646;BME280;64237;52.438;13.240;2023-07-13T05:19:00;100925.69;;;18.07;81.18
75646;BME280;64237;52.438;13.240;2023-07-13T05:21:25;100926.78;;;18.11;81.69
75646;BME280;64237;52.438;13.240;2023-07-13T05:23:51;100925.34;;;18.19;79.92
75646;BME280;64237;52.438;13.240;2023-07-13T05:26:16;100933.94;;;18.32;79.23
75646;BME280;64237;52.438;13.240;2023-07-13T05:28:42;100935.06;;;18.31;80.70
75646;BME280;64237;52.438;13.240;2023-07-13T05:31:11;100929.97;;;18.38;78.92
75646;BME280;64237;52.438;13.240;2023-07-13T05:33:36;100932.16;;;18.46;78.38
75646;BME280;64237;52.438;13.240;2023-07-13T05:36:05;100930.91;;;18.63;78.66
75646;BME280;64237;52.438;13.240;2023-07-13T05:38:36;100943.78;;;18.69;77.87
75646;BME280;64237;52.438;13.240;2023-07-13T05:41:04;100930.81;;;18.78;77.34
75646;BME280;64237;52.438;13.240;2023-07-13T05:43:36;100936.31;;;18.88;75.63
75646;BME280;64237;52.438;13.240;2023-07-13T05:46:04;100936.13;;;19.08;75.41
75646;BME280;64237;52.438;13.240;2023-07-13T05:48:29;100936.81;;;19.24;75.21
75646;BME280;64237;52.438;13.240;2023-07-13T05:50:54;100945.91;;;19.40;74.74
75646;BME280;64237;52.438;13.240;2023-07-13T05:53:20;100939.00;;;19.56;72.39
75646;BME280;64237;52.438;13.240;2023-07-13T05:55:57;100947.25;;;19.71;71.56
75646;BME280;64237;52.438;13.240;2023-07-13T05:58:23;100939.34;;;19.73;71.00
75646;BME280;64237;52.438;13.240;2023-07-13T06:00:59;100939.72;;;19.91;71.15
75646;BME280;64237;52.438;13.240;2023-07-13T06:03:25;100933.59;;;20.07;70.11
75646;BME280;64237;52.438;13.240;2023-07-13T06:05:50;100929.72;;;20.22;70.09
75646;BME280;64237;52.438;13.240;2023-07-13T06:08:15;100929.94;;;20.26;68.18
75646;BME280;64237;52.438;13.240;2023-07-13T06:10:50;100931.25;;;20.33;68.93
75646;BME280;64237;52.438;13.240;2023-07-13T06:13:28;100935.13;;;20.37;69.65
75646;BME280;64237;52.438;13.240;2023-07-13T06:15:53;100932.94;;;20.34;71.90
75646;BME280;64237;52.438;13.240;2023-07-13T06:18:18;100932.31;;;20.37;70.18
75646;BME280;64237;52.438;13.240;2023-07-13T06:20:44;100925.63;;;20.33;68.27
75646;BME280;64237;52.438;13.240;2023-07-13T06:23:12;100925.78;;;20.42;68.55
75646;BME280;64237;52.438;13.240;2023-07-13T06:25:37;100936.06;;;20.51;67.77
75646;BME280;64237;52.438;13.240;2023-07-13T06:28:15;100936.59;;;20.53;67.92
75646;BME280;64237;52.438;13.240;2023-07-13T06:30:40;100937.13;;;20.56;68.67
75646;BME280;64237;52.438;13.240;2023-07-13T06:33:06;100933.28;;;20.65;67.87
75646;BME280;64237;52.438;13.240;2023-07-13T06:35:31;100931.94;;;20.63;68.96
75646;BME280;64237;52.438;13.240;2023-07-13T06:38:00;100930.63;;;20.74;67.88
75646;BME280;64237;52.438;13.240;2023-07-13T06:40:28;100927.72;;;20.79;66.86
75646;BME280;64237;52.438;13.240;2023-07-13T06:42:55;100932.31;;;20.75;67.33
75646;BME280;64237;52.438;13.240;2023-07-13T06:45:20;100931.69;;;20.78;67.96
75646;BME280;64237;52.438;13.240;2023-07-13T06:47:46;100939.78;;;20.79;67.14
75646;BME280;64237;52.438;13.240;2023-07-13T06:50:11;100927.63;;;20.84;67.02
75646;BME280;64237;52.438;13.240;2023-07-13T06:52:37;100932.03;;;20.90;66.42
75646;BME280;64237;52.438;13.240;2023-07-13T06:55:02;100934.56;;;21.05;65.07
75646;BME280;64237;52.438;13.240;2023-07-13T06:57:28;100934.19;;;21.12;64.12
75646;BME280;64237;52.438;13.240;2023-07-13T06:59:53;100935.44;;;21.19;64.76
75646;BME280;64237;52.438;13.240;2023-07-13T07:02:19;100933.00;;;21.32;62.71
75646;BME280;64237;52.438;13.240;2023-07-13T07:04:44;100938.09;;;21.30;61.40
75646;BME280;64237;52.438;13.240;2023-07-13T07:07:12;100933.72;;;21.37;61.60
75646;BME280;64237;52.438;13.240;2023-07-13T07:09:38;100932.50;;;21.43;61.26
75646;BME280;64237;52.438;13.240;2023-07-13T07:12:03;100935.50;;;21.47;61.27
75646;BME280;64237;52.438;13.240;2023-07-13T07:14:30;100931.44;;;21.53;61.77
75646;BME280;64237;52.438;13.240;2023-07-13T07:16:55;100934.78;;;21.55;61.12
75646;BME280;64237;52.438;13.240;2023-07-13T07:19:21;100934.47;;;21.57;60.75
75646;BME280;64237;52.438;13.240;2023-07-13T07:21:46;100938.34;;;21.61;60.81
75646;BME280;64237;52.438;13.240;2023-07-13T07:24:11;100935.63;;;21.83;62.24
75646;BME280;64237;52.438;13.240;2023-07-13T07:26:37;100939.78;;;21.99;60.11
75646;BME280;64237;52.438;13.240;2023-07-13T07:29:02;100939.19;;;22.02;59.64
75646;BME280;64237;52.438;13.240;2023-07-13T07:31:28;100941.53;;;22.22;58.25
75646;BME280;64237;52.438;13.240;2023-07-13T07:33:53;100940.34;;;22.37;58.27
75646;BME280;64237;52.438;13.240;2023-07-13T07:36:19;100948.06;;;22.45;59.39
75646;BME280;64237;52.438;13.240;2023-07-13T07:38:44;100946.06;;;22.46;58.05
75646;BME280;64237;52.438;13.240;2023-07-13T07:41:10;100946.19;;;22.41;58.66
75646;BME280;64237;52.438;13.240;2023-07-13T07:43:35;100945.88;;;22.42;58.79
75646;BME280;64237;52.438;13.240;2023-07-13T07:46:01;100954.34;;;22.42;58.99
75646;BME280;64237;52.438;13.240;2023-07-13T07:48:26;100945.63;;;22.52;60.20
75646;BME280;64237;52.438;13.240;2023-07-13T07:50:52;100953.28;;;22.38;58.86
75646;BME280;64237;52.438;13.240;2023-07-13T07:53:17;100955.63;;;22.22;57.41
75646;BME280;64237;52.438;13.240;2023-07-13T07:55:42;100970.03;;;22.21;58.65
75646;BME280;64237;52.438;13.240;2023-07-13T07:58:08;100958.34;;;22.14;56.90
75646;BME280;64237;52.438;13.240;2023-07-13T08:00:33;100967.03;;;22.17;56.32
75646;BME280;64237;52.438;13.240;2023-07-13T08:03:01;100970.63;;;22.45;54.32
75646;BME280;64237;52.438;13.240;2023-07-13T08:05:27;100961.38;;;22.53;53.25
75646;BME280;64237;52.438;13.240;2023-07-13T08:07:52;100966.66;;;22.46;52.12
75646;BME280;64237;52.438;13.240;2023-07-13T08:10:18;100963.00;;;22.46;53.08
75646;BME280;64237;52.438;13.240;2023-07-13T08:12:43;100961.38;;;22.53;54.62
75646;BME280;64237;52.438;13.240;2023-07-13T08:15:12;100965.75;;;22.60;55.42
75646;BME280;64237;52.438;13.240;2023-07-13T08:17:37;100968.22;;;22.75;56.25
75646;BME280;64237;52.438;13.240;2023-07-13T08:20:03;100967.00;;;22.67;53.25
75646;BME280;64237;52.438;13.240;2023-07-13T08:22:29;100968.44;;;22.78;54.32
75646;BME280;64237;52.438;13.240;2023-07-13T08:24:54;100960.69;;;22.84;55.24
75646;BME280;64237;52.438;13.240;2023-07-13T08:27:24;100973.97;;;23.06;54.61
75646;BME280;64237;52.438;13.240;2023-07-13T08:29:50;100970.91;;;23.24;53.49
75646;BME280;64237;52.438;13.240;2023-07-13T08:32:16;100966.56;;;23.18;53.41
75646;BME280;64237;52.438;13.240;2023-07-13T08:34:41;100970.69;;;23.12;53.08
75646;BME280;64237;52.438;13.240;2023-07-13T08:37:07;100969.91;;;23.20;53.81
75646;BME280;64237;52.438;13.240;2023-07-13T08:39:34;100970.78;;;23.30;54.05
75646;BME280;64237;52.438;13.240;2023-07-13T08:47:03;100970.22;;;23.72;52.58
75646;BME280;64237;52.438;13.240;2023-07-13T08:49:30;100972.53;;;23.70;51.28
75646;BME280;64237;52.438;13.240;2023-07-13T08:52:02;100977.16;;;23.66;52.03
75646;BME280;64237;52.438;13.240;2023-07-13T08:57:08;100977.97;;;23.36;51.75
75646;BME280;64237;52.438;13.240;2023-07-13T08:59:35;100972.44;;;23.53;51.85
75646;BME280;64237;52.438;13.240;2023-07-13T09:07:29;100975.91;;;23.89;51.65
75646;BME280;64237;52.438;13.240;2023-07-13T09:15:35;100970.97;;;24.04;49.66
75646;BME280;64237;52.438;13.240;2023-07-13T09:20:55;100978.28;;;24.05;49.52
75646;BME280;64237;52.438;13.240;2023-07-13T09:23:23;100973.81;;;23.64;49.50
75646;BME280;64237;52.438;13.240;2023-07-13T09:25:54;100974.66;;;23.34;51.05
75646;BME280;64237;52.438;13.240;2023-07-13T09:28:25;100977.75;;;23.01;51.26
75646;BME280;64237;52.438;13.240;2023-07-13T09:30:52;100978.44;;;23.60;49.28
75646;BME280;64237;52.438;13.240;2023-07-13T09:33:20;100969.97;;;24.00;47.53
75646;BME280;64237;52.438;13.240;2023-07-13T09:35:46;100973.25;;;24.41;48.80
75646;BME280;64237;52.438;13.240;2023-07-13T09:38:14;100968.13;;;23.95;46.76
75646;BME280;64237;52.438;13.240;2023-07-13T09:43:38;100971.88;;;23.20;47.51
75646;BME280;64237;52.438;13.240;2023-07-13T09:46:03;100980.56;;;23.01;48.60
75646;BME280;64237;52.438;13.240;2023-07-13T09:48:36;100985.13;;;22.75;48.89
75646;BME280;64237;52.438;13.240;2023-07-13T09:51:13;100989.94;;;22.74;49.70
75646;BME280;64237;52.438;13.240;2023-07-13T09:53:42;100983.69;;;22.77;48.03
75646;BME280;64237;52.438;13.240;2023-07-13T09:56:20;100979.66;;;23.68;46.95
75646;BME280;64237;52.438;13.240;2023-07-13T09:58:45;100980.47;;;24.08;46.24
75646;BME280;64237;52.438;13.240;2023-07-13T10:01:12;100976.28;;;24.05;43.34
75646;BME280;64237;52.438;13.240;2023-07-13T10:03:39;100978.28;;;23.96;45.97
75646;BME280;64237;52.438;13.240;2023-07-13T10:06:16;100975.75;;;24.51;45.67
75646;BME280;64237;52.438;13.240;2023-07-13T10:08:44;100978.75;;;24.38;45.82
75646;BME280;64237;52.438;13.240;2023-07-13T10:11:12;100980.25;;;24.61;46.19
75646;BME280;64237;52.438;13.240;2023-07-13T10:13:48;100983.72;;;24.32;48.15
75646;BME280;64237;52.438;13.240;2023-07-13T10:16:15;100986.44;;;24.06;47.32
75646;BME280;64237;52.438;13.240;2023-07-13T10:18:59;100977.28;;;24.66;46.08
75646;BME280;64237;52.438;13.240;2023-07-13T10:21:32;100976.25;;;25.22;44.52
75646;BME280;64237;52.438;13.240;2023-07-13T10:24:21;100985.59;;;24.97;46.07
75646;BME280;64237;52.438;13.240;2023-07-13T10:26:57;100990.06;;;24.55;43.29
75646;BME280;64237;52.438;13.240;2023-07-13T10:29:27;100985.41;;;24.50;42.30
75646;BME280;64237;52.438;13.240;2023-07-13T10:31:54;100996.25;;;25.26;52.14
75646;BME280;64237;52.438;13.240;2023-07-13T10:34:22;100978.16;;;25.65;42.06
75646;BME280;64237;52.438;13.240;2023-07-13T10:36:48;100982.69;;;26.25;42.11
75646;BME280;64237;52.438;13.240;2023-07-13T10:39:24;100979.56;;;26.89;41.07
75646;BME280;64237;52.438;13.240;2023-07-13T10:41:59;100972.06;;;26.43;41.37
75646;BME280;64237;52.438;13.240;2023-07-13T10:44:29;100986.28;;;26.13;41.40
75646;BME280;64237;52.438;13.240;2023-07-13T10:47:01;100985.25;;;26.47;44.09
75646;BME280;64237;52.438;13.240;2023-07-13T10:49:29;100998.66;;;26.38;39.15
75646;BME280;64237;52.438;13.240;2023-07-13T10:51:55;100983.31;;;26.81;39.30
75646;BME280;64237;52.438;13.240;2023-07-13T10:59:38;100978.09;;;27.70;36.45
75646;BME280;64237;52.438;13.240;2023-07-13T11:02:25;100987.22;;;27.63;33.56
75646;BME280;64237;52.438;13.240;2023-07-13T11:04:53;100980.81;;;27.66;35.09
75646;BME280;64237;52.438;13.240;2023-07-13T11:07:28;100977.38;;;27.73;34.42
75646;BME280;64237;52.438;13.240;2023-07-13T11:09:56;100974.34;;;27.90;34.70
75646;BME280;64237;52.438;13.240;2023-07-13T11:22:42;100974.44;;;28.18;36.28
75646;BME280;64237;52.438;13.240;2023-07-13T11:30:36;100984.00;;;26.78;38.12
75646;BME280;64237;52.438;13.240;2023-07-13T11:36:18;100969.31;;;27.62;35.94
75646;BME280;64237;52.438;13.240;2023-07-13T11:39:01;100973.59;;;27.69;33.42
75646;BME280;64237;52.438;13.240;2023-07-13T11:41:33;100972.09;;;28.20;36.55
75646;BME280;64237;52.438;13.240;2023-07-13T11:44:21;100960.31;;;27.97;33.40
75646;BME280;64237;52.438;13.240;2023-07-13T11:46:52;100983.09;;;27.40;34.73
75646;BME280;64237;52.438;13.240;2023-07-13T11:49:20;100968.00;;;27.60;38.76
75646;BME280;64237;52.438;13.240;2023-07-13T11:51:47;100960.84;;;27.54;33.59
75646;BME280;64237;52.438;13.240;2023-07-13T11:57:23;100966.84;;;27.61;34.42
75646;BME280;64237;52.438;13.240;2023-07-13T11:59:52;100957.72;;;27.80;33.87
75646;BME280;64237;52.438;13.240;2023-07-13T12:02:37;100966.25;;;28.16;34.38
75646;BME280;64237;52.438;13.240;2023-07-13T12:05:04;100953.59;;;28.14;36.59
75646;BME280;64237;52.438;13.240;2023-07-13T12:07:33;100953.31;;;27.94;33.11
75646;BME280;64237;52.438;13.240;2023-07-13T12:10:03;100949.31;;;27.95;34.72
75646;BME280;64237;52.438;13.240;2023-07-13T12:12:36;100952.63;;;27.97;42.04
75646;BME280;64237;52.438;13.240;2023-07-13T12:15:06;100952.41;;;27.90;36.75
75646;BME280;64237;52.438;13.240;2023-07-13T12:17:31;100952.63;;;27.73;34.11
75646;BME280;64237;52.438;13.240;2023-07-13T12:19:59;100951.44;;;27.62;35.31
75646;BME280;64237;52.438;13.240;2023-07-13T12:22:25;100955.94;;;27.75;35.51
75646;BME280;64237;52.438;13.240;2023-07-13T12:24:51;100964.94;;;27.77;35.43
75646;BME280;64237;52.438;13.240;2023-07-13T12:29:52;100958.91;;;28.03;35.83
75646;BME280;64237;52.438;13.240;2023-07-13T12:32:19;100966.63;;;28.27;34.49
75646;BME280;64237;52.438;13.240;2023-07-13T12:34:56;100960.44;;;28.37;33.21
75646;BME280;64237;52.438;13.240;2023-07-13T12:37:22;100954.19;;;28.72;33.89
75646;BME280;64237;52.438;13.240;2023-07-13T12:39:49;100952.00;;;28.41;38.45
75646;BME280;64237;52.438;13.240;2023-07-13T12:42:26;100950.72;;;28.38;34.66
75646;BME280;64237;52.438;13.240;2023-07-13T12:44:56;100945.38;;;28.49;31.96
75646;BME280;64237;52.438;13.240;2023-07-13T12:47:22;100952.88;;;28.29;33.17
75646;BME280;64237;52.438;13.240;2023-07-13T12:49:50;100959.78;;;28.68;34.88
75646;BME280;64237;52.438;13.240;2023-07-13T12:52:23;100950.16;;;28.20;32.88
75646;BME280;64237;52.438;13.240;2023-07-13T12:54:58;100958.00;;;27.54;35.23
75646;BME280;64237;52.438;13.240;2023-07-13T12:57:24;100963.34;;;27.10;40.27
75646;BME280;64237;52.438;13.240;2023-07-13T12:59:54;100968.69;;;26.70;35.43
75646;BME280;64237;52.438;13.240;2023-07-13T13:04:52;100964.38;;;26.85;37.36
75646;BME280;64237;52.438;13.240;2023-07-13T13:07:20;100972.22;;;26.88;35.80
75646;BME280;64237;52.438;13.240;2023-07-13T13:09:45;100961.69;;;27.09;38.21
75646;BME280;64237;52.438;13.240;2023-07-13T13:12:12;100958.19;;;27.24;34.27
75646;BME280;64237;52.438;13.240;2023-07-13T13:14:38;100960.09;;;27.33;34.59
75646;BME280;64237;52.438;13.240;2023-07-13T13:17:18;100962.03;;;27.08;37.80
75646;BME280;64237;52.438;13.240;2023-07-13T13:19:44;100951.13;;;27.55;37.35
75646;BME280;64237;52.438;13.240;2023-07-13T13:22:10;100950.03;;;27.92;36.64
75646;BME280;64237;52.438;13.240;2023-07-13T13:24:35;100949.78;;;28.10;34.08
75646;BME280;64237;52.438;13.240;2023-07-13T13:27:00;100951.44;;;28.35;32.89
75646;BME280;64237;52.438;13.240;2023-07-13T13:29:27;100955.63;;;28.65;36.40
75646;BME280;64237;52.438;13.240;2023-07-13T13:31:55;100957.38;;;27.81;33.39
75646;BME280;64237;52.438;13.240;2023-07-13T13:34:22;100954.06;;;28.04;32.56
75646;BME280;64237;52.438;13.240;2023-07-13T13:36:52;100951.94;;;28.25;36.24
75646;BME280;64237;52.438;13.240;2023-07-13T13:39:21;100961.69;;;27.54;35.61
75646;BME280;64237;52.438;13.240;2023-07-13T13:41:48;100957.94;;;27.17;34.70
75646;BME280;64237;52.438;13.240;2023-07-13T13:44:15;100961.06;;;27.37;34.51
75646;BME280;64237;52.438;13.240;2023-07-13T13:46:41;100960.34;;;27.40;33.47
75646;BME280;64237;52.438;13.240;2023-07-13T13:49:16;100964.88;;;27.41;36.73